Time;durP1;ratioP1;P1;durP2;ratioP2;P2;SDS_P1;SDS_P2;PMS_P1;PMS_P2;Temp;Humidity;BMP_temperature;BMP_pressure;BME280_temperature;BME280_humidity;BME280_pressure;Samples;Min_cycle;Max_cycle;Signal;HPM_P1;HPM_P2
2022/03/19 00:02:01;;;;;;;19.90;8.73;;;8.40;99.90;;;;;;5093928;28;20773;-56
2022/03/19 00:04:26;;;;;;;20.17;8.98;;;8.40;99.90;;;;;;5074598;28;20473;-55
2022/03/19 00:06:52;;;;;;;22.40;9.50;;;8.40;99.90;;;;;;5092296;28;20855;-55
2022/03/19 00:09:17;;;;;;;20.50;9.48;;;8.30;99.90;;;;;;5073749;28;20381;-57
2022/03/19 00:11:43;;;;;;;20.67;9.47;;;8.30;99.90;;;;;;5072232;28;21005;-55
2022/03/19 00:14:14;;;;;;;21.35;9.10;;;8.30;99.90;;;;;;5073173;28;20535;-57
2022/03/19 00:16:40;;;;;;;22.75;9.60;;;8.30;99.90;;;;;;5076149;28;20402;-57
2022/03/19 00:19:08;;;;;;;18.35;9.13;;;8.20;99.90;;;;;;5076232;28;20436;-57
2022/03/19 00:21:34;;;;;;;19.27;8.97;;;8.20;99.90;;;;;;5075233;28;20658;-55
2022/03/19 00:24:02;;;;;;;21.85;9.60;;;8.20;99.90;;;;;;5092910;28;20490;-54
2022/03/19 00:26:28;;;;;;;20.00;9.13;;;8.20;99.90;;;;;;5076100;28;20393;-52
2022/03/19 00:28:53;;;;;;;22.10;9.20;;;8.10;99.90;;;;;;5073753;28;20403;-53
2022/03/19 00:31:19;;;;;;;23.50;9.18;;;8.00;99.90;;;;;;5057023;28;20724;-57
2022/03/19 00:33:44;;;;;;;18.03;9.37;;;8.00;99.90;;;;;;5054971;28;20399;-56
2022/03/19 00:36:10;;;;;;;21.97;9.57;;;8.00;99.90;;;;;;5054238;28;20392;-57
2022/03/19 00:38:35;;;;;;;15.70;9.23;;;7.90;99.90;;;;;;5053809;28;20560;-53
2022/03/19 00:41:02;;;;;;;17.17;9.18;;;7.90;99.90;;;;;;5053060;28;20391;-57
2022/03/19 00:43:27;;;;;;;19.92;9.05;;;7.90;99.90;;;;;;5053175;28;20414;-57
2022/03/19 00:45:53;;;;;;;17.67;9.02;;;7.90;99.90;;;;;;5068509;28;20415;-54
2022/03/19 00:48:18;;;;;;;20.97;9.37;;;7.90;99.90;;;;;;5067930;28;20426;-57
2022/03/19 00:50:44;;;;;;;20.77;8.60;;;7.90;99.90;;;;;;5051400;28;20407;-57
2022/03/19 00:53:10;;;;;;;16.73;8.50;;;7.80;99.90;;;;;;5050949;28;20380;-54
2022/03/19 00:55:35;;;;;;;21.80;8.98;;;7.80;99.90;;;;;;5051867;28;20394;-56
2022/03/19 00:58:02;;;;;;;18.92;9.02;;;7.80;99.90;;;;;;5052909;28;20395;-55
2022/03/19 01:00:28;;;;;;;17.93;9.13;;;7.80;99.90;;;;;;5051522;28;20502;-51
2022/03/19 01:02:55;;;;;;;16.00;8.50;;;7.90;99.90;;;;;;5053590;28;20443;-56
2022/03/19 01:05:22;;;;;;;16.95;8.27;;;7.70;99.90;;;;;;5036693;28;20402;-55
2022/03/19 01:07:51;;;;;;;17.75;8.18;;;7.70;99.90;;;;;;5053514;28;20380;-56
2022/03/19 01:10:20;;;;;;;18.42;8.07;;;7.60;99.90;;;;;;5050736;28;20387;-56
2022/03/19 01:12:47;;;;;;;16.80;7.45;;;7.60;99.90;;;;;;5035277;28;20380;-56
2022/03/19 01:15:13;;;;;;;19.17;7.90;;;7.60;99.90;;;;;;5050596;28;20503;-57
2022/03/19 01:17:39;;;;;;;17.10;7.50;;;7.60;99.90;;;;;;5052366;28;20698;-55
2022/03/19 01:20:06;;;;;;;14.77;7.10;;;7.60;99.90;;;;;;5053656;28;20379;-56
2022/03/19 01:22:33;;;;;;;19.25;7.18;;;7.50;99.90;;;;;;5055841;28;20896;-56
2022/03/19 01:25:04;;;;;;;16.65;7.05;;;7.50;99.90;;;;;;5055794;28;20384;-57
2022/03/19 01:27:30;;;;;;;15.70;7.00;;;7.40;99.90;;;;;;5055603;28;20497;-54
2022/03/19 01:29:56;;;;;;;16.30;7.00;;;7.40;99.90;;;;;;5056649;28;20401;-56
2022/03/19 01:32:21;;;;;;;15.60;7.03;;;7.40;99.90;;;;;;5073219;28;20442;-55
2022/03/19 01:34:47;;;;;;;17.63;6.93;;;7.40;99.90;;;;;;5056618;28;20384;-53
2022/03/19 01:37:13;;;;;;;13.27;6.22;;;7.30;99.90;;;;;;5056187;28;20395;-57
2022/03/19 01:39:39;;;;;;;17.73;6.93;;;7.30;99.90;;;;;;5057014;28;20475;-56
2022/03/19 01:42:05;;;;;;;13.30;6.15;;;7.30;99.90;;;;;;5058164;28;20391;-57
2022/03/19 01:44:31;;;;;;;15.00;6.90;;;7.30;99.90;;;;;;5056968;28;20848;-53
2022/03/19 01:47:08;;;;;;;15.20;6.35;;;7.30;99.90;;;;;;5075600;28;20449;-55
2022/03/19 01:49:33;;;;;;;17.75;6.72;;;7.20;99.90;;;;;;5074408;28;20426;-53
2022/03/19 01:51:59;;;;;;;13.23;6.50;;;7.20;99.90;;;;;;5057131;28;20403;-56
2022/03/19 01:54:28;;;;;;;19.13;7.68;;;7.20;99.90;;;;;;5074216;28;20384;-54
2022/03/19 01:56:55;;;;;;;13.50;6.47;;;7.10;99.90;;;;;;5073963;28;20382;-54
2022/03/19 01:59:26;;;;;;;16.10;6.70;;;7.10;99.90;;;;;;5057460;28;20669;-55
2022/03/19 02:01:53;;;;;;;13.95;6.60;;;7.10;99.90;;;;;;5055830;28;20406;-55
2022/03/19 02:04:19;;;;;;;15.43;6.63;;;7.00;99.90;;;;;;5071923;28;20829;-56
2022/03/19 02:06:45;;;;;;;16.25;6.78;;;7.00;99.90;;;;;;5055494;28;20476;-55
2022/03/19 02:09:12;;;;;;;16.00;6.25;;;7.00;99.90;;;;;;5053771;28;20391;-57
2022/03/19 02:11:37;;;;;;;15.63;7.00;;;6.90;99.90;;;;;;5053616;28;20404;-54
2022/03/19 02:14:04;;;;;;;17.63;7.07;;;6.90;99.90;;;;;;5053956;28;20499;-51
2022/03/19 02:16:30;;;;;;;14.25;6.15;;;6.90;99.90;;;;;;5071314;28;20414;-57
2022/03/19 02:19:00;;;;;;;16.95;6.22;;;6.80;99.90;;;;;;5073219;28;20376;-57
2022/03/19 02:21:26;;;;;;;15.57;6.03;;;6.90;99.90;;;;;;5055789;28;20394;-55
2022/03/19 02:26:46;;;;;;;15.57;6.43;;;6.80;99.90;;;;;;5057152;28;20387;-57
2022/03/19 02:29:12;;;;;;;14.93;5.65;;;6.80;99.90;;;;;;5055320;28;20411;-56
2022/03/19 02:31:40;;;;;;;18.05;6.55;;;6.80;99.90;;;;;;5057015;28;20479;-56
2022/03/19 02:34:09;;;;;;;14.52;6.00;;;6.70;99.90;;;;;;5054827;28;20380;-56
2022/03/19 02:36:37;;;;;;;14.50;5.85;;;6.80;99.90;;;;;;5052296;28;20482;-56
2022/03/19 02:39:17;;;;;;;15.02;5.72;;;6.70;99.90;;;;;;5053118;28;20636;-52
2022/03/19 02:41:51;;;;;;;14.55;5.78;;;6.70;99.90;;;;;;5056768;28;20395;-52
2022/03/19 02:44:18;;;;;;;14.27;5.40;;;6.60;99.90;;;;;;5057446;28;20761;-56
2022/03/19 02:46:50;;;;;;;15.60;5.35;;;6.60;99.90;;;;;;5056440;28;20739;-53
2022/03/19 02:49:17;;;;;;;10.90;5.10;;;6.60;99.90;;;;;;5058317;28;20802;-56
2022/03/19 02:51:45;;;;;;;16.20;5.22;;;6.60;99.90;;;;;;5041218;28;20418;-56
2022/03/19 02:54:13;;;;;;;11.45;5.18;;;6.60;99.90;;;;;;5057073;28;20382;-55
2022/03/19 02:56:40;;;;;;;11.13;5.18;;;6.50;99.90;;;;;;5046477;28;20384;-55
2022/03/19 02:59:19;;;;;;;13.57;5.23;;;6.50;99.90;;;;;;5062723;28;22635;-53
2022/03/19 03:01:45;;;;;;;14.48;4.95;;;6.50;99.90;;;;;;5079663;28;20388;-53
2022/03/19 03:04:11;;;;;;;15.68;5.15;;;6.40;99.90;;;;;;5061843;28;20448;-53
2022/03/19 03:06:39;;;;;;;11.20;4.88;;;6.50;99.90;;;;;;5080089;28;20392;-52
2022/03/19 03:09:05;;;;;;;13.60;4.68;;;6.50;99.90;;;;;;5061905;28;20419;-56
2022/03/19 03:11:31;;;;;;;12.83;4.50;;;6.50;99.90;;;;;;5078575;28;20768;-53
2022/03/19 03:13:57;;;;;;;13.43;5.20;;;6.50;99.90;;;;;;5077417;28;20497;-55
2022/03/19 03:16:25;;;;;;;11.50;4.40;;;6.40;99.90;;;;;;5076604;28;20699;-57
2022/03/19 03:18:50;;;;;;;15.45;4.72;;;6.50;99.90;;;;;;5060152;28;20757;-57
2022/03/19 03:21:16;;;;;;;14.40;4.93;;;6.40;99.90;;;;;;5060916;28;20753;-57
2022/03/19 03:23:41;;;;;;;12.10;4.45;;;6.40;99.90;;;;;;5061457;28;20391;-56
2022/03/19 03:26:07;;;;;;;12.75;4.30;;;6.40;99.90;;;;;;5079881;28;20388;-57
2022/03/19 03:28:33;;;;;;;12.10;4.77;;;6.30;99.90;;;;;;5063286;28;20391;-57
2022/03/19 03:30:58;;;;;;;13.60;4.32;;;6.30;99.90;;;;;;5063645;28;20418;-55
2022/03/19 03:33:24;;;;;;;14.80;5.00;;;6.30;99.90;;;;;;5062843;28;20376;-55
2022/03/19 03:35:50;;;;;;;10.70;4.07;;;6.30;99.90;;;;;;5061559;28;20486;-53
2022/03/19 03:38:15;;;;;;;11.23;4.35;;;6.30;99.90;;;;;;5078386;28;20383;-53
2022/03/19 03:40:41;;;;;;;13.10;4.50;;;6.30;99.90;;;;;;5060004;28;20402;-53
2022/03/19 03:43:08;;;;;;;11.27;4.57;;;6.20;99.90;;;;;;5060823;28;20398;-55
2022/03/19 03:45:35;;;;;;;11.20;4.05;;;6.20;99.90;;;;;;5079288;28;20732;-57
2022/03/19 03:48:01;;;;;;;12.25;4.55;;;6.10;99.90;;;;;;5061864;28;20478;-56
2022/03/19 03:50:28;;;;;;;12.40;4.35;;;6.20;99.90;;;;;;5079176;28;20510;-56
2022/03/19 03:52:54;;;;;;;11.35;4.22;;;6.10;99.90;;;;;;5062312;28;20380;-57
2022/03/19 03:55:20;;;;;;;12.90;4.18;;;6.10;99.90;;;;;;5060966;28;20380;-56
2022/03/19 03:57:46;;;;;;;10.23;4.20;;;6.20;99.90;;;;;;5079187;28;20783;-56
2022/03/19 04:00:13;;;;;;;10.87;4.27;;;6.10;99.90;;;;;;5062067;28;20391;-56
2022/03/19 04:02:39;;;;;;;12.52;4.05;;;6.10;99.90;;;;;;5062127;28;20391;-55
2022/03/19 04:05:06;;;;;;;13.15;4.60;;;6.10;99.90;;;;;;5062480;28;20383;-54
2022/03/19 04:07:32;;;;;;;10.85;4.28;;;6.10;99.90;;;;;;5058710;28;20959;-57
2022/03/19 04:09:58;;;;;;;11.07;4.38;;;6.10;99.90;;;;;;5060194;28;20388;-53
2022/03/19 04:12:24;;;;;;;10.90;4.03;;;6.00;99.90;;;;;;5058656;28;20400;-56
2022/03/19 04:14:51;;;;;;;10.50;4.40;;;6.00;99.90;;;;;;5059693;28;20785;-56
2022/03/19 04:17:17;;;;;;;10.15;3.83;;;6.00;99.90;;;;;;5076283;28;20406;-54
2022/03/19 04:19:42;;;;;;;10.00;4.10;;;6.00;99.90;;;;;;5059627;28;20414;-57
2022/03/19 04:22:08;;;;;;;10.63;4.20;;;5.90;99.90;;;;;;5076719;28;20376;-53
2022/03/19 04:24:34;;;;;;;13.85;4.60;;;5.90;99.90;;;;;;5059388;28;20380;-56
2022/03/19 04:26:59;;;;;;;10.60;4.57;;;5.80;99.90;;;;;;5076493;28;20380;-55
2022/03/19 04:29:25;;;;;;;10.73;3.70;;;5.80;99.90;;;;;;5076023;28;20491;-54
2022/03/19 04:31:51;;;;;;;11.67;4.43;;;5.80;99.90;;;;;;5058431;28;20411;-56
2022/03/19 04:34:17;;;;;;;12.57;4.17;;;5.70;99.90;;;;;;5075781;28;20383;-56
2022/03/19 04:36:43;;;;;;;12.10;4.40;;;5.70;99.90;;;;;;5057176;28;20446;-57
2022/03/19 04:39:10;;;;;;;14.53;4.73;;;5.70;99.90;;;;;;5057898;28;20380;-52
2022/03/19 04:41:36;;;;;;;9.20;3.90;;;5.70;99.90;;;;;;5057814;28;20380;-54
2022/03/19 04:44:04;;;;;;;10.43;4.00;;;5.60;99.90;;;;;;5058212;28;20408;-57
2022/03/19 04:46:30;;;;;;;9.35;3.65;;;5.60;99.90;;;;;;5057891;28;20423;-57
2022/03/19 04:48:56;;;;;;;13.33;4.20;;;5.60;99.90;;;;;;5075703;28;20530;-57
2022/03/19 04:51:32;;;;;;;12.68;4.22;;;5.60;99.90;;;;;;5075953;28;20403;-57
2022/03/19 04:53:59;;;;;;;10.20;4.20;;;5.60;99.90;;;;;;5056759;28;20491;-56
2022/03/19 04:56:27;;;;;;;12.18;4.00;;;5.60;99.90;;;;;;5072481;28;20379;-53
2022/03/19 04:59:11;;;;;;;10.45;3.90;;;5.60;99.90;;;;;;5056567;28;20406;-53
2022/03/19 05:01:39;;;;;;;10.38;4.18;;;5.50;99.90;;;;;;5073314;28;20675;-53
2022/03/19 05:04:05;;;;;;;11.43;4.15;;;5.50;99.90;;;;;;5056822;28;20845;-56
2022/03/19 05:06:32;;;;;;;11.82;3.90;;;5.50;99.90;;;;;;5054908;28;20399;-57
2022/03/19 05:11:43;;;;;;;10.63;4.03;;;5.40;99.90;;;;;;5070200;28;20528;-56
2022/03/19 05:14:09;;;;;;;9.35;3.58;;;5.40;99.90;;;;;;5069799;28;20384;-55
2022/03/19 05:16:36;;;;;;;10.73;4.25;;;5.40;99.90;;;;;;5052352;28;20404;-58
2022/03/19 05:19:02;;;;;;;13.30;4.35;;;5.30;99.90;;;;;;5049124;28;20380;-53
2022/03/19 05:21:30;;;;;;;13.07;3.92;;;5.30;99.90;;;;;;5050064;28;20396;-57
2022/03/19 05:23:56;;;;;;;13.52;4.47;;;5.30;99.90;;;;;;5049122;28;20401;-57
2022/03/19 05:26:22;;;;;;;11.77;4.10;;;5.30;99.90;;;;;;5050889;28;20388;-56
2022/03/19 05:28:47;;;;;;;16.83;4.45;;;5.30;99.90;;;;;;5069235;28;20403;-57
2022/03/19 05:31:13;;;;;;;11.55;4.10;;;5.20;99.90;;;;;;5051582;28;20435;-53
2022/03/19 05:36:26;;;;;;;11.07;4.00;;;5.20;99.90;;;;;;5070642;28;20398;-56
2022/03/19 05:38:53;;;;;;;14.48;4.53;;;5.20;99.90;;;;;;5052519;28;20795;-55
2022/03/19 05:41:18;;;;;;;10.73;4.07;;;5.20;99.90;;;;;;5054332;28;20392;-55
2022/03/19 05:43:44;;;;;;;14.80;4.10;;;5.10;99.90;;;;;;5055141;28;20380;-55
2022/03/19 05:46:10;;;;;;;11.37;4.33;;;5.10;99.90;;;;;;5070849;28;20494;-57
2022/03/19 05:48:35;;;;;;;14.00;4.00;;;5.10;99.90;;;;;;5051766;28;20410;-57
2022/03/19 05:51:02;;;;;;;14.77;4.38;;;5.10;99.90;;;;;;5068568;28;20476;-55
2022/03/19 05:53:28;;;;;;;11.10;3.78;;;5.00;99.90;;;;;;5055170;28;20379;-55
2022/03/19 05:55:54;;;;;;;11.20;4.00;;;5.00;99.90;;;;;;5054952;28;20376;-58
2022/03/19 05:58:21;;;;;;;12.23;4.07;;;5.00;99.90;;;;;;5073797;28;20414;-57
2022/03/19 06:00:47;;;;;;;11.05;3.75;;;5.10;99.90;;;;;;5056129;28;20495;-54
2022/03/19 06:03:13;;;;;;;12.10;4.00;;;5.00;99.90;;;;;;5072133;28;20371;-55
2022/03/19 06:05:38;;;;;;;12.30;4.10;;;5.00;99.90;;;;;;5071702;28;20379;-53
2022/03/19 06:08:04;;;;;;;11.83;3.70;;;5.00;99.90;;;;;;5053535;28;20464;-55
2022/03/19 06:10:30;;;;;;;12.40;4.00;;;5.00;99.90;;;;;;5070382;28;20505;-54
2022/03/19 06:12:56;;;;;;;14.52;4.18;;;5.10;99.90;;;;;;5052718;28;20665;-55
2022/03/19 06:15:22;;;;;;;10.63;3.73;;;5.10;99.90;;;;;;5068502;28;20453;-54
2022/03/19 06:17:47;;;;;;;11.77;4.30;;;5.10;99.90;;;;;;5051285;28;20454;-58
2022/03/19 06:20:14;;;;;;;10.55;4.00;;;5.10;99.90;;;;;;5069005;28;20391;-56
2022/03/19 06:22:40;;;;;;;10.10;3.78;;;5.00;99.90;;;;;;5052319;28;20469;-55
2022/03/19 06:25:07;;;;;;;10.55;3.70;;;5.10;99.90;;;;;;5051725;28;20384;-58
2022/03/19 06:27:33;;;;;;;8.63;3.47;;;5.10;99.90;;;;;;5053558;28;20388;-56
2022/03/19 06:29:58;;;;;;;10.98;3.75;;;5.10;99.90;;;;;;5069397;28;20399;-57
2022/03/19 06:32:25;;;;;;;12.98;3.80;;;5.10;99.90;;;;;;5052233;28;20487;-54
2022/03/19 06:34:51;;;;;;;10.90;3.40;;;5.10;99.90;;;;;;5054350;28;20450;-55
2022/03/19 06:37:20;;;;;;;10.00;3.50;;;5.20;99.90;;;;;;5070940;28;20386;-56
2022/03/19 06:39:53;;;;;;;12.93;3.65;;;5.20;99.90;;;;;;5054886;28;20799;-55
2022/03/19 06:42:18;;;;;;;9.82;3.00;;;5.20;99.90;;;;;;5071969;28;20637;-54
2022/03/19 06:44:44;;;;;;;12.02;3.90;;;5.30;99.90;;;;;;5053457;28;20467;-54
2022/03/19 06:47:09;;;;;;;10.27;3.30;;;5.30;99.90;;;;;;5051741;28;20464;-57
2022/03/19 06:49:35;;;;;;;10.83;3.20;;;5.40;99.90;;;;;;5052741;28;20399;-57
2022/03/19 06:52:01;;;;;;;7.97;3.33;;;5.40;99.90;;;;;;5049691;28;20451;-55
2022/03/19 06:54:26;;;;;;;8.73;3.60;;;5.40;99.90;;;;;;5046764;28;20584;-56
2022/03/19 06:56:52;;;;;;;11.35;3.70;;;5.40;99.90;;;;;;5047132;28;20412;-57
2022/03/19 06:59:18;;;;;;;10.67;3.20;;;5.50;99.90;;;;;;5045963;28;20482;-53
2022/03/19 07:01:43;;;;;;;8.38;3.17;;;5.50;99.90;;;;;;5044819;28;20379;-56
2022/03/19 07:04:09;;;;;;;9.87;3.13;;;5.60;99.90;;;;;;5061069;28;20940;-58
2022/03/19 07:06:35;;;;;;;8.13;3.10;;;5.60;99.90;;;;;;5047357;28;20402;-57
2022/03/19 07:09:00;;;;;;;10.60;3.47;;;5.70;99.90;;;;;;5064352;28;20739;-58
2022/03/19 07:11:26;;;;;;;9.93;3.22;;;5.70;99.90;;;;;;5064062;28;20407;-55
2022/03/19 07:13:51;;;;;;;10.37;3.60;;;5.80;99.90;;;;;;5046778;28;20407;-57
2022/03/19 07:16:17;;;;;;;13.93;4.00;;;5.80;99.90;;;;;;5050566;28;20684;-54
2022/03/19 07:18:43;;;;;;;11.20;3.33;;;5.90;99.90;;;;;;5027678;28;20417;-56
2022/03/19 07:21:10;;;;;;;7.70;2.97;;;5.90;99.90;;;;;;5028797;28;20385;-55
2022/03/19 07:23:36;;;;;;;10.23;3.30;;;5.90;99.90;;;;;;5030723;28;20378;-56
2022/03/19 07:26:01;;;;;;;9.53;2.97;;;6.00;99.90;;;;;;5050214;28;20555;-56
2022/03/19 07:28:28;;;;;;;10.55;3.03;;;6.10;99.90;;;;;;5049028;28;20388;-55
2022/03/19 07:30:56;;;;;;;9.57;3.20;;;6.10;99.90;;;;;;5029560;28;20432;-59
2022/03/19 07:33:22;;;;;;;13.50;3.42;;;6.10;99.90;;;;;;5028205;28;20392;-56
2022/03/19 07:35:48;;;;;;;10.73;3.20;;;6.20;99.90;;;;;;5026414;28;20385;-56
2022/03/19 07:38:14;;;;;;;10.17;3.00;;;6.20;99.90;;;;;;5023350;28;20389;-58
2022/03/19 07:43:25;;;;;;;9.07;2.88;;;6.30;99.90;;;;;;5043229;28;20535;-53
2022/03/19 07:45:52;;;;;;;7.18;2.58;;;6.30;99.90;;;;;;5043966;28;20431;-58
2022/03/19 07:48:17;;;;;;;13.90;3.67;;;6.40;99.90;;;;;;5027417;28;20377;-55
2022/03/19 07:50:43;;;;;;;6.88;2.50;;;6.40;99.90;;;;;;5027703;28;20412;-57
2022/03/19 07:53:09;;;;;;;7.33;3.03;;;6.40;99.90;;;;;;5026813;28;20392;-57
2022/03/19 07:55:35;;;;;;;9.97;3.17;;;6.40;99.90;;;;;;5028033;28;20530;-56
2022/03/19 07:58:01;;;;;;;9.70;2.78;;;6.50;99.90;;;;;;5029457;28;20942;-53
2022/03/19 08:00:27;;;;;;;8.75;3.00;;;6.50;99.90;;;;;;5046572;28;20810;-55
2022/03/19 08:02:52;;;;;;;7.63;3.08;;;6.60;99.90;;;;;;5047102;28;20413;-58
2022/03/19 08:05:18;;;;;;;8.38;2.63;;;6.60;99.90;;;;;;5030325;28;20476;-56
2022/03/19 08:07:44;;;;;;;12.23;3.33;;;6.60;99.90;;;;;;5030565;28;20389;-54
2022/03/19 08:10:10;;;;;;;8.43;2.60;;;6.70;99.90;;;;;;5012976;28;20797;-56
2022/03/19 08:12:38;;;;;;;8.68;2.83;;;6.70;99.90;;;;;;5028148;28;20540;-56
2022/03/19 08:15:06;;;;;;;7.63;2.90;;;6.80;99.90;;;;;;5031653;28;20407;-55
2022/03/19 08:17:31;;;;;;;6.57;2.72;;;6.80;99.90;;;;;;5049137;28;20392;-56
2022/03/19 08:19:58;;;;;;;7.70;2.80;;;6.80;99.90;;;;;;5048070;28;20457;-58
2022/03/19 08:22:27;;;;;;;8.47;2.67;;;6.80;99.90;;;;;;5047044;28;20460;-56
2022/03/19 08:24:53;;;;;;;9.43;2.80;;;6.90;99.90;;;;;;5047480;28;20820;-54
2022/03/19 08:27:20;;;;;;;9.88;2.78;;;7.00;99.90;;;;;;5066013;28;20392;-56
2022/03/19 08:29:46;;;;;;;9.45;3.17;;;7.00;99.90;;;;;;5048490;28;20694;-57
2022/03/19 08:32:12;;;;;;;8.45;2.70;;;7.00;99.90;;;;;;5046363;28;20807;-56
2022/03/19 08:34:38;;;;;;;11.75;3.20;;;7.00;99.90;;;;;;5046935;28;20395;-55
2022/03/19 08:37:05;;;;;;;7.25;2.63;;;7.10;99.90;;;;;;5046929;28;21138;-56
2022/03/19 08:42:16;;;;;;;8.60;2.80;;;7.20;99.90;;;;;;5066450;28;20454;-56
2022/03/19 08:44:43;;;;;;;6.25;2.50;;;7.20;99.90;;;;;;5062946;28;20477;-58
2022/03/19 08:47:09;;;;;;;7.72;3.00;;;7.30;99.90;;;;;;5043709;28;20478;-56
2022/03/19 08:49:35;;;;;;;8.20;2.60;;;7.30;99.90;;;;;;5060945;28;20824;-55
2022/03/19 08:52:01;;;;;;;5.65;2.05;;;7.40;99.90;;;;;;5042191;28;20400;-54
2022/03/19 08:54:26;;;;;;;8.18;3.00;;;7.40;99.90;;;;;;5061540;28;20375;-57
2022/03/19 08:56:55;;;;;;;8.02;2.90;;;7.40;99.90;;;;;;5046312;28;20380;-57
2022/03/19 08:59:21;;;;;;;10.55;3.20;;;7.50;99.90;;;;;;5044318;28;20391;-57
2022/03/19 09:01:49;;;;;;;8.00;2.72;;;7.50;99.90;;;;;;5042755;28;20659;-57
2022/03/19 09:04:16;;;;;;;6.95;2.40;;;7.60;99.90;;;;;;5042972;28;20380;-54
2022/03/19 09:06:42;;;;;;;9.65;2.75;;;7.60;99.90;;;;;;5041691;28;20415;-55
2022/03/19 09:09:08;;;;;;;7.43;2.50;;;7.70;99.90;;;;;;5061730;28;20391;-52
2022/03/19 09:11:35;;;;;;;9.73;3.23;;;7.80;99.90;;;;;;5042967;28;20897;-54
2022/03/19 09:14:03;;;;;;;7.43;2.70;;;7.80;99.90;;;;;;5044887;28;20419;-52
2022/03/19 09:16:30;;;;;;;7.10;2.60;;;7.90;99.90;;;;;;5044562;28;20427;-56
2022/03/19 09:18:58;;;;;;;6.25;2.53;;;8.00;99.90;;;;;;5065049;28;20389;-56
2022/03/19 09:21:24;;;;;;;7.97;2.85;;;8.00;99.90;;;;;;5067304;28;20408;-56
2022/03/19 09:23:50;;;;;;;8.25;2.70;;;8.10;99.90;;;;;;5068714;28;20413;-53
2022/03/19 09:26:17;;;;;;;8.02;2.80;;;8.10;99.90;;;;;;5070222;28;20405;-57
2022/03/19 09:28:43;;;;;;;6.45;2.30;;;8.10;99.90;;;;;;5062590;28;20484;-57
2022/03/19 09:31:09;;;;;;;6.22;2.60;;;8.10;99.90;;;;;;5070334;28;20543;-57
2022/03/19 09:33:36;;;;;;;7.65;2.45;;;8.10;99.90;;;;;;5066078;28;20822;-56
2022/03/19 09:36:02;;;;;;;5.57;1.95;;;8.20;99.90;;;;;;5074227;28;20391;-56
2022/03/19 09:38:29;;;;;;;9.07;2.25;;;8.20;99.90;;;;;;5067255;28;20825;-56
2022/03/19 09:40:56;;;;;;;7.47;2.78;;;8.20;99.90;;;;;;5074624;28;20492;-54
2022/03/19 09:43:29;;;;;;;6.40;2.30;;;8.30;99.90;;;;;;5092425;28;20736;-56
2022/03/19 09:45:55;;;;;;;3.60;1.77;;;8.40;99.90;;;;;;5064790;28;20442;-54
2022/03/19 09:48:22;;;;;;;7.13;2.35;;;8.40;99.90;;;;;;5073115;28;20378;-56
2022/03/19 09:50:55;;;;;;;5.07;1.88;;;8.50;99.90;;;;;;5071604;28;20406;-55
2022/03/19 09:53:23;;;;;;;5.68;1.98;;;8.50;99.90;;;;;;5059032;28;20401;-55
2022/03/19 09:55:53;;;;;;;7.55;2.20;;;8.50;99.90;;;;;;5074021;28;20386;-53
2022/03/19 09:58:19;;;;;;;5.47;2.10;;;8.60;99.90;;;;;;5054904;28;20394;-52
2022/03/19 10:00:45;;;;;;;5.03;2.03;;;8.60;99.90;;;;;;5057119;28;20401;-55
2022/03/19 10:03:12;;;;;;;6.50;2.00;;;8.70;99.90;;;;;;5072410;28;20414;-56
2022/03/19 10:08:43;;;;;;;7.43;1.83;;;8.80;99.90;;;;;;5090639;28;20741;-57
2022/03/19 10:11:11;;;;;;;6.75;2.10;;;8.80;99.90;;;;;;5091634;28;20420;-57
2022/03/19 10:13:44;;;;;;;6.40;2.30;;;8.90;99.90;;;;;;5087266;28;20455;-57
2022/03/19 10:16:11;;;;;;;4.63;1.80;;;8.90;99.90;;;;;;5084402;28;20414;-56
2022/03/19 10:18:38;;;;;;;4.97;2.10;;;8.90;99.90;;;;;;5073186;28;20390;-55
2022/03/19 10:21:14;;;;;;;3.90;1.63;;;8.90;99.90;;;;;;5082432;28;21086;-56
2022/03/19 10:23:39;;;;;;;2.43;1.30;;;9.00;99.90;;;;;;5093293;28;20399;-56
2022/03/19 10:26:06;;;;;;;5.37;1.83;;;9.10;99.90;;;;;;5087810;28;20443;-55
2022/03/19 10:28:36;;;;;;;2.42;1.50;;;9.10;99.90;;;;;;5088072;28;20391;-55
2022/03/19 10:31:03;;;;;;;3.85;1.58;;;9.10;99.90;;;;;;5091255;28;20849;-56
2022/03/19 10:33:30;;;;;;;8.85;2.45;;;9.20;99.90;;;;;;5076509;28;20403;-56
2022/03/19 10:36:10;;;;;;;5.13;1.98;;;9.30;99.90;;;;;;5075533;28;20386;-55
2022/03/19 10:38:46;;;;;;;3.28;1.30;;;9.30;99.90;;;;;;5063379;28;20481;-53
2022/03/19 10:41:17;;;;;;;3.78;1.38;;;9.40;99.90;;;;;;5079801;28;20382;-56
2022/03/19 10:43:46;;;;;;;4.03;1.65;;;9.50;99.90;;;;;;5081991;28;20568;-53
2022/03/19 10:46:12;;;;;;;4.05;1.50;;;9.70;99.90;;;;;;5063840;28;20389;-56
2022/03/19 10:48:38;;;;;;;5.18;1.42;;;10.00;99.90;;;;;;5062915;28;20564;-56
2022/03/19 10:51:08;;;;;;;4.03;1.30;;;10.30;99.90;;;;;;5062294;28;20509;-56
2022/03/19 10:53:35;;;;;;;4.13;1.60;;;10.50;99.90;;;;;;5082473;28;20370;-55
2022/03/19 10:56:03;;;;;;;5.80;1.63;;;10.90;99.90;;;;;;5063917;28;20475;-56
2022/03/19 10:58:28;;;;;;;3.72;1.40;;;11.10;99.90;;;;;;5062011;28;20700;-56
2022/03/19 11:00:54;;;;;;;4.77;1.30;;;11.40;99.90;;;;;;5061200;28;20753;-55
2022/03/19 11:03:30;;;;;;;4.93;1.40;;;11.60;99.90;;;;;;5079105;28;20386;-56
2022/03/19 11:06:00;;;;;;;2.50;1.30;;;11.70;99.90;;;;;;5065266;28;20471;-57
2022/03/19 11:08:28;;;;;;;2.92;1.25;;;11.80;99.90;;;;;;5063949;28;20394;-55
2022/03/19 11:10:58;;;;;;;4.13;1.50;;;12.00;99.90;;;;;;5063421;28;20691;-57
2022/03/19 11:13:30;;;;;;;4.43;1.87;;;12.00;99.90;;;;;;5081091;28;20435;-56
2022/03/19 11:16:00;;;;;;;5.47;1.42;;;12.00;99.90;;;;;;5062158;28;20410;-55
2022/03/19 11:18:26;;;;;;;4.45;1.50;;;12.20;99.90;;;;;;5066201;28;20432;-57
2022/03/19 11:20:53;;;;;;;2.25;1.30;;;12.40;99.90;;;;;;5071058;28;20495;-56
2022/03/19 11:23:27;;;;;;;5.03;1.83;;;12.80;99.90;;;;;;5072944;28;20454;-55
2022/03/19 11:25:55;;;;;;;4.22;1.70;;;13.00;99.90;;;;;;5091361;28;20732;-54
2022/03/19 11:28:21;;;;;;;2.75;1.60;;;12.90;99.90;;;;;;5074429;28;20770;-57
2022/03/19 11:31:04;;;;;;;4.35;1.75;;;13.00;99.90;;;;;;5092421;28;20830;-57
2022/03/19 11:33:31;;;;;;;2.03;1.20;;;13.10;99.90;;;;;;5092917;28;20995;-55
2022/03/19 11:36:00;;;;;;;2.53;1.33;;;13.30;99.90;;;;;;5074592;28;20381;-56
2022/03/19 11:38:29;;;;;;;3.22;1.55;;;13.60;99.90;;;;;;5076498;28;20390;-56
2022/03/19 11:40:56;;;;;;;3.10;1.70;;;13.60;99.90;;;;;;5075708;28;20468;-56
2022/03/19 11:43:25;;;;;;;3.85;1.42;;;13.90;99.90;;;;;;5076347;28;20417;-55
2022/03/19 11:45:52;;;;;;;3.75;1.50;;;14.20;99.90;;;;;;5073668;28;20402;-56
2022/03/19 11:48:36;;;;;;;4.15;1.50;;;14.10;99.90;;;;;;5071229;28;20442;-55
2022/03/19 11:51:25;;;;;;;4.38;1.52;;;14.10;99.90;;;;;;5091752;28;20393;-56
2022/03/19 11:53:55;;;;;;;3.43;1.53;;;14.50;99.90;;;;;;5092749;28;20369;-56
2022/03/19 11:56:26;;;;;;;4.47;1.73;;;14.30;99.90;;;;;;5075172;28;20406;-55
2022/03/19 11:58:52;;;;;;;4.78;1.80;;;14.30;99.90;;;;;;5076281;28;20386;-55
2022/03/19 12:01:49;;;;;;;3.20;1.60;;;14.10;99.90;;;;;;5077521;28;20743;-56
2022/03/19 12:04:17;;;;;;;3.17;1.65;;;13.80;99.90;;;;;;5053574;28;20409;-56
2022/03/19 12:06:57;;;;;;;4.28;1.70;;;13.60;99.90;;;;;;5073282;28;20390;-55
2022/03/19 12:09:50;;;;;;;3.63;1.70;;;13.10;99.90;;;;;;5093015;28;20397;-56
2022/03/19 12:12:21;;;;;;;4.90;1.97;;;12.80;99.90;;;;;;5073898;28;20900;-55
2022/03/19 12:14:47;;;;;;;2.83;1.52;;;12.90;99.90;;;;;;5074221;28;20412;-57
2022/03/19 12:17:28;;;;;;;3.15;1.50;;;12.80;99.90;;;;;;5056280;28;20374;-57
2022/03/19 12:20:01;;;;;;;5.45;1.80;;;12.60;99.90;;;;;;5091162;28;20972;-55
2022/03/19 12:22:33;;;;;;;3.28;1.60;;;12.90;99.90;;;;;;5074194;28;20455;-55
2022/03/19 12:25:09;;;;;;;3.90;1.75;;;12.80;99.90;;;;;;5074034;28;20425;-56
2022/03/19 12:27:35;;;;;;;2.75;1.50;;;13.10;99.90;;;;;;5092872;28;20405;-56
2022/03/19 12:30:02;;;;;;;3.42;1.65;;;13.20;99.90;;;;;;5090839;28;20486;-57
2022/03/19 12:32:28;;;;;;;4.45;1.60;;;13.20;99.90;;;;;;5074175;28;20398;-57
2022/03/19 12:35:00;;;;;;;6.00;1.98;;;13.50;99.90;;;;;;5089801;28;20378;-55
2022/03/19 12:37:26;;;;;;;2.65;1.58;;;13.80;99.90;;;;;;5071577;28;20399;-53
2022/03/19 12:40:01;;;;;;;5.30;2.10;;;14.10;99.90;;;;;;5070882;28;20399;-56
2022/03/19 12:42:32;;;;;;;3.30;1.35;;;14.50;99.90;;;;;;5086630;28;20396;-55
2022/03/19 12:45:03;;;;;;;4.65;1.73;;;14.90;99.90;;;;;;5068712;28;20444;-55
2022/03/19 12:47:29;;;;;;;4.10;1.90;;;15.20;99.90;;;;;;5068124;28;20454;-56
2022/03/19 12:50:01;;;;;;;4.30;1.80;;;15.40;99.90;;;;;;5085239;28;20378;-56
2022/03/19 12:52:29;;;;;;;4.47;1.90;;;15.70;99.90;;;;;;5069369;28;20405;-57
2022/03/19 12:54:57;;;;;;;4.07;1.67;;;15.40;99.90;;;;;;5071897;28;20378;-57
2022/03/19 12:57:24;;;;;;;4.50;1.70;;;14.90;99.90;;;;;;5070770;28;20389;-56
2022/03/19 12:59:55;;;;;;;3.55;1.38;;;14.70;99.90;;;;;;5071699;28;20410;-55
2022/03/19 13:02:23;;;;;;;4.25;1.42;;;14.60;99.90;;;;;;5072072;28;20428;-53
2022/03/19 13:04:49;;;;;;;3.17;1.80;;;14.50;99.90;;;;;;5071834;28;20390;-55
2022/03/19 13:07:17;;;;;;;4.15;1.80;;;14.40;99.90;;;;;;5073282;28;20417;-54
2022/03/19 13:09:43;;;;;;;3.80;1.63;;;14.20;99.90;;;;;;5090397;28;21074;-55